sensor_id;sensor_type;location;lat;lon;timestamp;pressure;altitude;pressure_sealevel;temperature;humidity
72925;BME280;61070;50.794;7.054;2024-03-06T00:00:44;101138.16;;;6.35;92.07
72925;BME280;61070;50.794;7.054;2024-03-06T00:01:45;101143.34;;;6.36;92.36
72925;BME280;61070;50.794;7.054;2024-03-06T00:02:45;101144.22;;;6.37;92.36
72925;BME280;61070;50.794;7.054;2024-03-06T00:03:45;101146.84;;;6.35;92.39
72925;BME280;61070;50.794;7.054;2024-03-06T00:04:45;101148.56;;;6.38;92.33
72925;BME280;61070;50.794;7.054;2024-03-06T00:05:47;101148.50;;;6.39;92.38
72925;BME280;61070;50.794;7.054;2024-03-06T00:06:47;101152.75;;;6.43;92.06
72925;BME280;61070;50.794;7.054;2024-03-06T00:07:47;101144.09;;;6.41;92.36
72925;BME280;61070;50.794;7.054;2024-03-06T00:08:48;101154.53;;;6.41;92.26
72925;BME280;61070;50.794;7.054;2024-03-06T00:09:48;101153.69;;;6.41;92.14
72925;BME280;61070;50.794;7.054;2024-03-06T00:10:48;101158.09;;;6.39;92.02
72925;BME280;61070;50.794;7.054;2024-03-06T00:11:49;101163.25;;;6.40;92.22
72925;BME280;61070;50.794;7.054;2024-03-06T00:12:51;101152.06;;;6.37;92.10
72925;BME280;61070;50.794;7.054;2024-03-06T00:13:51;101152.91;;;6.37;92.29
72925;BME280;61070;50.794;7.054;2024-03-06T00:14:51;101147.59;;;6.40;92.28
72925;BME280;61070;50.794;7.054;2024-03-06T00:15:52;101154.63;;;6.38;92.24
72925;BME280;61070;50.794;7.054;2024-03-06T00:16:52;101156.28;;;6.41;92.21
72925;BME280;61070;50.794;7.054;2024-03-06T00:17:52;101156.38;;;6.38;92.26
72925;BME280;61070;50.794;7.054;2024-03-06T00:18:52;101159.84;;;6.38;92.37
72925;BME280;61070;50.794;7.054;2024-03-06T00:19:53;101162.41;;;6.40;92.40
72925;BME280;61070;50.794;7.054;2024-03-06T00:20:53;101156.38;;;6.38;92.18
72925;BME280;61070;50.794;7.054;2024-03-06T00:21:53;101167.59;;;6.41;92.21
72925;BME280;61070;50.794;7.054;2024-03-06T00:22:54;101164.09;;;6.42;92.21
72925;BME280;61070;50.794;7.054;2024-03-06T00:23:54;101170.19;;;6.43;92.07
72925;BME280;61070;50.794;7.054;2024-03-06T00:24:55;101164.91;;;6.44;92.12
72925;BME280;61070;50.794;7.054;2024-03-06T00:25:56;101165.75;;;6.46;92.09
72925;BME280;61070;50.794;7.054;2024-03-06T00:26:56;101164.06;;;6.44;92.08
72925;BME280;61070;50.794;7.054;2024-03-06T00:27:56;101169.22;;;6.45;92.00
72925;BME280;61070;50.794;7.054;2024-03-06T00:28:57;101170.97;;;6.46;92.29
72925;BME280;61070;50.794;7.054;2024-03-06T00:29:57;101174.41;;;6.48;92.30
72925;BME280;61070;50.794;7.054;2024-03-06T00:30:57;101176.06;;;6.51;92.14
72925;BME280;61070;50.794;7.054;2024-03-06T00:31:58;101171.72;;;6.52;91.94
72925;BME280;61070;50.794;7.054;2024-03-06T00:32:58;101170.84;;;6.51;92.03
72925;BME280;61070;50.794;7.054;2024-03-06T00:33:59;101175.22;;;6.51;91.87
72925;BME280;61070;50.794;7.054;2024-03-06T00:34:59;101178.72;;;6.50;92.04
72925;BME280;61070;50.794;7.054;2024-03-06T00:35:59;101180.47;;;6.49;92.12
72925;BME280;61070;50.794;7.054;2024-03-06T00:36:59;101175.25;;;6.49;92.12
72925;BME280;61070;50.794;7.054;2024-03-06T00:38:00;101180.44;;;6.51;92.00
72925;BME280;61070;50.794;7.054;2024-03-06T00:39:03;101177.81;;;6.52;92.04
72925;BME280;61070;50.794;7.054;2024-03-06T00:40:05;101184.78;;;6.52;92.12
72925;BME280;61070;50.794;7.054;2024-03-06T00:41:06;101176.94;;;6.52;92.03
72925;BME280;61070;50.794;7.054;2024-03-06T00:42:06;101184.78;;;6.52;91.98
72925;BME280;61070;50.794;7.054;2024-03-06T00:43:09;101182.97;;;6.54;92.04
72925;BME280;61070;50.794;7.054;2024-03-06T00:44:09;101179.50;;;6.53;91.71
72925;BME280;61070;50.794;7.054;2024-03-06T00:45:09;101184.78;;;6.52;91.70
72925;BME280;61070;50.794;7.054;2024-03-06T00:46:10;101178.50;;;6.59;91.40
72925;BME280;61070;50.794;7.054;2024-03-06T00:47:10;101186.50;;;6.53;90.92
72925;BME280;61070;50.794;7.054;2024-03-06T00:48:10;101189.91;;;6.55;91.00
72925;BME280;61070;50.794;7.054;2024-03-06T00:49:10;101182.16;;;6.52;91.00
72925;BME280;61070;50.794;7.054;2024-03-06T00:50:11;101188.25;;;6.51;90.65
72925;BME280;61070;50.794;7.054;2024-03-06T00:51:11;101189.06;;;6.54;90.61
72925;BME280;61070;50.794;7.054;2024-03-06T00:52:12;101192.56;;;6.53;90.48
72925;BME280;61070;50.794;7.054;2024-03-06T00:53:12;101193.47;;;6.51;90.28
72925;BME280;61070;50.794;7.054;2024-03-06T00:54:13;101201.16;;;6.58;90.30
72925;BME280;61070;50.794;7.054;2024-03-06T00:55:13;101196.06;;;6.52;89.88
72925;BME280;61070;50.794;7.054;2024-03-06T00:56:13;101203.00;;;6.53;89.45
72925;BME280;61070;50.794;7.054;2024-03-06T00:57:13;101200.47;;;6.50;89.17
72925;BME280;61070;50.794;7.054;2024-03-06T00:58:14;101204.00;;;6.47;89.17
72925;BME280;61070;50.794;7.054;2024-03-06T00:59:14;101202.31;;;6.45;89.15
72925;BME280;61070;50.794;7.054;2024-03-06T01:00:15;101200.47;;;6.50;87.79
72925;BME280;61070;50.794;7.054;2024-03-06T01:01:16;101202.34;;;6.43;87.29
72925;BME280;61070;50.794;7.054;2024-03-06T01:02:16;101201.31;;;6.51;87.25
72925;BME280;61070;50.794;7.054;2024-03-06T01:03:16;101205.47;;;6.59;85.50
72925;BME280;61070;50.794;7.054;2024-03-06T01:04:17;101208.13;;;6.56;85.37
72925;BME280;61070;50.794;7.054;2024-03-06T01:05:17;101211.63;;;6.57;84.66
72925;BME280;61070;50.794;7.054;2024-03-06T01:06:17;101209.28;;;6.44;84.82
72925;BME280;61070;50.794;7.054;2024-03-06T01:07:17;101213.50;;;6.50;84.85
72925;BME280;61070;50.794;7.054;2024-03-06T01:08:19;101211.00;;;6.45;84.75
72925;BME280;61070;50.794;7.054;2024-03-06T01:09:19;101207.63;;;6.42;84.81
72925;BME280;61070;50.794;7.054;2024-03-06T01:10:19;101214.69;;;6.37;85.17
72925;BME280;61070;50.794;7.054;2024-03-06T01:11:20;101214.75;;;6.34;85.09
72925;BME280;61070;50.794;7.054;2024-03-06T01:12:20;101212.19;;;6.31;85.45
72925;BME280;61070;50.794;7.054;2024-03-06T01:13:21;101215.56;;;6.37;84.95
72925;BME280;61070;50.794;7.054;2024-03-06T01:14:21;101212.09;;;6.35;85.23
72925;BME280;61070;50.794;7.054;2024-03-06T01:15:21;101215.59;;;6.34;85.11
72925;BME280;61070;50.794;7.054;2024-03-06T01:16:22;101214.00;;;6.29;85.54
72925;BME280;61070;50.794;7.054;2024-03-06T01:17:22;101207.97;;;6.25;86.13
72925;BME280;61070;50.794;7.054;2024-03-06T01:18:22;101218.50;;;6.22;86.51
72925;BME280;61070;50.794;7.054;2024-03-06T01:19:23;101213.31;;;6.19;86.50
72925;BME280;61070;50.794;7.054;2024-03-06T01:20:23;101216.84;;;6.18;86.71
72925;BME280;61070;50.794;7.054;2024-03-06T01:21:24;101220.34;;;6.15;86.79
72925;BME280;61070;50.794;7.054;2024-03-06T01:22:25;101217.75;;;6.15;87.23
72925;BME280;61070;50.794;7.054;2024-03-06T01:23:25;101212.63;;;6.11;86.92
72925;BME280;61070;50.794;7.054;2024-03-06T01:24:25;101231.72;;;6.13;86.91
72925;BME280;61070;50.794;7.054;2024-03-06T01:25:26;101215.19;;;6.14;86.94
72925;BME280;61070;50.794;7.054;2024-03-06T01:26:26;101220.41;;;6.14;86.09
72925;BME280;61070;50.794;7.054;2024-03-06T01:27:27;101216.97;;;6.10;85.80
72925;BME280;61070;50.794;7.054;2024-03-06T01:28:27;101222.19;;;6.12;86.16
72925;BME280;61070;50.794;7.054;2024-03-06T01:29:30;101216.13;;;6.10;86.23
72925;BME280;61070;50.794;7.054;2024-03-06T01:30:30;101222.94;;;6.17;85.45
72925;BME280;61070;50.794;7.054;2024-03-06T01:31:31;101222.16;;;6.13;86.03
72925;BME280;61070;50.794;7.054;2024-03-06T01:32:31;101219.59;;;6.12;86.29
72925;BME280;61070;50.794;7.054;2024-03-06T01:33:33;101224.00;;;6.08;86.34
72925;BME280;61070;50.794;7.054;2024-03-06T01:34:33;101219.69;;;6.07;86.57
72925;BME280;61070;50.794;7.054;2024-03-06T01:35:33;101232.72;;;6.07;86.48
72925;BME280;61070;50.794;7.054;2024-03-06T01:36:33;101223.22;;;6.03;86.67
72925;BME280;61070;50.794;7.054;2024-03-06T01:37:34;101227.56;;;6.04;86.82
72925;BME280;61070;50.794;7.054;2024-03-06T01:38:35;101227.50;;;6.06;86.07
72925;BME280;61070;50.794;7.054;2024-03-06T01:39:35;101224.81;;;6.10;85.22
72925;BME280;61070;50.794;7.054;2024-03-06T01:40:36;101230.13;;;6.07;85.05
72925;BME280;61070;50.794;7.054;2024-03-06T01:41:36;101225.72;;;6.09;84.96
72925;BME280;61070;50.794;7.054;2024-03-06T01:42:36;101224.00;;;6.08;85.49
72925;BME280;61070;50.794;7.054;2024-03-06T01:43:37;101227.47;;;6.09;85.91
72925;BME280;61070;50.794;7.054;2024-03-06T01:44:41;101221.34;;;6.10;85.87
72925;BME280;61070;50.794;7.054;2024-03-06T01:45:41;101234.34;;;6.11;86.10
72925;BME280;61070;50.794;7.054;2024-03-06T01:46:42;101227.41;;;6.12;86.44
72925;BME280;61070;50.794;7.054;2024-03-06T01:47:43;101229.97;;;6.13;86.40
72925;BME280;61070;50.794;7.054;2024-03-06T01:48:43;101230.84;;;6.14;86.44
72925;BME280;61070;50.794;7.054;2024-03-06T01:49:44;101227.41;;;6.12;86.03
72925;BME280;61070;50.794;7.054;2024-03-06T01:50:44;101229.97;;;6.13;85.64
72925;BME280;61070;50.794;7.054;2024-03-06T01:51:51;101230.78;;;6.17;85.90
72925;BME280;61070;50.794;7.054;2024-03-06T01:52:52;101235.00;;;6.21;84.93
72925;BME280;61070;50.794;7.054;2024-03-06T01:53:53;101228.97;;;6.19;84.37
72925;BME280;61070;50.794;7.054;2024-03-06T01:54:54;101233.31;;;6.20;84.72
72925;BME280;61070;50.794;7.054;2024-03-06T01:55:54;101232.44;;;6.19;84.98
72925;BME280;61070;50.794;7.054;2024-03-06T01:56:55;101239.38;;;6.20;85.22
72925;BME280;61070;50.794;7.054;2024-03-06T01:57:56;101236.81;;;6.19;85.61
72925;BME280;61070;50.794;7.054;2024-03-06T01:58:56;101247.22;;;6.20;85.41
72925;BME280;61070;50.794;7.054;2024-03-06T01:59:57;101241.19;;;6.18;85.77
72925;BME280;61070;50.794;7.054;2024-03-06T02:00:57;101242.84;;;6.21;86.15
72925;BME280;61070;50.794;7.054;2024-03-06T02:01:58;101248.06;;;6.22;85.90
72925;BME280;61070;50.794;7.054;2024-03-06T02:03:01;101247.16;;;6.24;85.85
72925;BME280;61070;50.794;7.054;2024-03-06T02:04:02;101247.22;;;6.20;85.71
72925;BME280;61070;50.794;7.054;2024-03-06T02:05:02;101247.22;;;6.20;85.67
72925;BME280;61070;50.794;7.054;2024-03-06T02:06:04;101244.50;;;6.25;85.66
72925;BME280;61070;50.794;7.054;2024-03-06T02:07:09;101241.91;;;6.25;84.71
72925;BME280;61070;50.794;7.054;2024-03-06T02:08:12;101236.78;;;6.20;84.79
72925;BME280;61070;50.794;7.054;2024-03-06T02:09:13;101240.31;;;6.18;85.15
72925;BME280;61070;50.794;7.054;2024-03-06T02:10:14;101239.47;;;6.16;85.04
72925;BME280;61070;50.794;7.054;2024-03-06T02:11:14;101234.25;;;6.16;85.14
72925;BME280;61070;50.794;7.054;2024-03-06T02:12:16;101244.69;;;6.16;85.30
72925;BME280;61070;50.794;7.054;2024-03-06T02:13:17;101239.50;;;6.14;85.24
72925;BME280;61070;50.794;7.054;2024-03-06T02:14:18;101238.59;;;6.17;84.57
72925;BME280;61070;50.794;7.054;2024-03-06T02:15:18;101242.94;;;6.16;84.34
72925;BME280;61070;50.794;7.054;2024-03-06T02:16:19;101245.59;;;6.15;84.78
72925;BME280;61070;50.794;7.054;2024-03-06T02:17:19;101241.28;;;6.14;84.51
72925;BME280;61070;50.794;7.054;2024-03-06T02:18:19;101240.41;;;6.13;83.86
72925;BME280;61070;50.794;7.054;2024-03-06T02:19:20;101244.78;;;6.13;83.76
72925;BME280;61070;50.794;7.054;2024-03-06T02:20:23;101242.13;;;6.14;83.79
72925;BME280;61070;50.794;7.054;2024-03-06T02:21:24;101237.00;;;6.10;83.13
72925;BME280;61070;50.794;7.054;2024-03-06T02:22:25;101239.69;;;6.05;83.02
72925;BME280;61070;50.794;7.054;2024-03-06T02:23:25;101239.75;;;6.04;83.84
72925;BME280;61070;50.794;7.054;2024-03-06T02:24:25;101241.41;;;6.06;84.26
72925;BME280;61070;50.794;7.054;2024-03-06T02:25:26;101243.19;;;6.04;84.03
72925;BME280;61070;50.794;7.054;2024-03-06T02:26:26;101244.97;;;6.04;84.65
72925;BME280;61070;50.794;7.054;2024-03-06T02:27:26;101232.84;;;6.00;84.62
72925;BME280;61070;50.794;7.054;2024-03-06T02:28:26;101237.13;;;6.04;84.60
72925;BME280;61070;50.794;7.054;2024-03-06T02:29:27;101244.09;;;6.02;84.63
72925;BME280;61070;50.794;7.054;2024-03-06T02:30:27;101245.00;;;6.01;84.76
72925;BME280;61070;50.794;7.054;2024-03-06T02:31:27;101245.94;;;5.98;84.36
72925;BME280;61070;50.794;7.054;2024-03-06T02:32:28;101240.72;;;5.98;84.44
72925;BME280;61070;50.794;7.054;2024-03-06T02:33:28;101238.13;;;5.96;84.65
72925;BME280;61070;50.794;7.054;2024-03-06T02:34:29;101235.56;;;5.95;84.54
72925;BME280;61070;50.794;7.054;2024-03-06T02:35:32;101236.47;;;5.91;84.52
72925;BME280;61070;50.794;7.054;2024-03-06T02:36:32;101236.56;;;5.88;84.58
72925;BME280;61070;50.794;7.054;2024-03-06T02:37:33;101238.31;;;5.86;84.67
72925;BME280;61070;50.794;7.054;2024-03-06T02:38:33;101235.78;;;5.81;84.89
72925;BME280;61070;50.794;7.054;2024-03-06T02:39:34;101239.38;;;5.77;85.11
72925;BME280;61070;50.794;7.054;2024-03-06T02:40:34;101235.06;;;5.75;85.35
72925;BME280;61070;50.794;7.054;2024-03-06T02:41:38;101236.00;;;5.70;85.36
72925;BME280;61070;50.794;7.054;2024-03-06T02:42:38;101234.31;;;5.68;85.62
72925;BME280;61070;50.794;7.054;2024-03-06T02:43:41;101230.00;;;5.67;86.37
72925;BME280;61070;50.794;7.054;2024-03-06T02:44:42;101234.38;;;5.65;85.89
72925;BME280;61070;50.794;7.054;2024-03-06T02:45:43;101229.22;;;5.62;85.77
72925;BME280;61070;50.794;7.054;2024-03-06T02:46:47;101233.59;;;5.60;85.96
72925;BME280;61070;50.794;7.054;2024-03-06T02:47:49;101232.78;;;5.58;85.92
72925;BME280;61070;50.794;7.054;2024-03-06T02:48:49;101236.28;;;5.55;85.83
72925;BME280;61070;50.794;7.054;2024-03-06T02:49:49;101238.03;;;5.55;85.90
72925;BME280;61070;50.794;7.054;2024-03-06T02:50:49;101239.75;;;5.56;85.87
72925;BME280;61070;50.794;7.054;2024-03-06T02:51:50;101239.78;;;5.54;85.98
72925;BME280;61070;50.794;7.054;2024-03-06T02:52:51;101242.44;;;5.53;86.54
72925;BME280;61070;50.794;7.054;2024-03-06T02:53:53;101242.44;;;5.53;86.23
72925;BME280;61070;50.794;7.054;2024-03-06T02:54:53;101245.91;;;5.53;86.17
72925;BME280;61070;50.794;7.054;2024-03-06T02:55:54;101242.44;;;5.53;86.39
72925;BME280;61070;50.794;7.054;2024-03-06T02:56:54;101245.03;;;5.53;86.72
72925;BME280;61070;50.794;7.054;2024-03-06T02:57:54;101244.09;;;5.55;86.67
72925;BME280;61070;50.794;7.054;2024-03-06T02:58:54;101236.25;;;5.57;86.43
72925;BME280;61070;50.794;7.054;2024-03-06T02:59:56;101240.59;;;5.56;86.23
72925;BME280;61070;50.794;7.054;2024-03-06T03:00:56;101237.16;;;5.56;86.53
72925;BME280;61070;50.794;7.054;2024-03-06T03:01:56;101240.59;;;5.58;86.98
72925;BME280;61070;50.794;7.054;2024-03-06T03:02:57;101238.84;;;5.58;87.04
72925;BME280;61070;50.794;7.054;2024-03-06T03:03:57;101234.44;;;5.60;87.25
72925;BME280;61070;50.794;7.054;2024-03-06T03:04:58;101234.41;;;5.62;87.13
72925;BME280;61070;50.794;7.054;2024-03-06T03:05:58;101240.53;;;5.61;87.20
72925;BME280;61070;50.794;7.054;2024-03-06T03:06:59;101227.50;;;5.62;86.94
72925;BME280;61070;50.794;7.054;2024-03-06T03:07:59;101230.19;;;5.58;86.62
72925;BME280;61070;50.794;7.054;2024-03-06T03:09:00;101241.38;;;5.63;86.67
72925;BME280;61070;50.794;7.054;2024-03-06T03:10:00;101239.63;;;5.63;86.45
72925;BME280;61070;50.794;7.054;2024-03-06T03:11:00;101233.56;;;5.63;86.73
72925;BME280;61070;50.794;7.054;2024-03-06T03:12:00;101235.31;;;5.62;86.34
72925;BME280;61070;50.794;7.054;2024-03-06T03:13:01;101242.25;;;5.62;86.20
72925;BME280;61070;50.794;7.054;2024-03-06T03:14:01;101239.72;;;5.59;86.31
72925;BME280;61070;50.794;7.054;2024-03-06T03:15:02;101240.56;;;5.59;86.31
72925;BME280;61070;50.794;7.054;2024-03-06T03:16:02;101236.25;;;5.58;86.45
72925;BME280;61070;50.794;7.054;2024-03-06T03:17:04;101236.25;;;5.57;86.15
72925;BME280;61070;50.794;7.054;2024-03-06T03:18:07;101242.34;;;5.57;86.30
72925;BME280;61070;50.794;7.054;2024-03-06T03:19:08;101239.78;;;5.54;86.35
72925;BME280;61070;50.794;7.054;2024-03-06T03:20:11;101241.56;;;5.52;86.47
72925;BME280;61070;50.794;7.054;2024-03-06T03:21:11;101244.19;;;5.51;86.96
72925;BME280;61070;50.794;7.054;2024-03-06T03:22:13;101248.59;;;5.49;87.01
72925;BME280;61070;50.794;7.054;2024-03-06T03:23:13;101238.19;;;5.45;86.78
72925;BME280;61070;50.794;7.054;2024-03-06T03:24:15;101246.91;;;5.44;86.54
72925;BME280;61070;50.794;7.054;2024-03-06T03:25:16;101253.03;;;5.42;86.68
72925;BME280;61070;50.794;7.054;2024-03-06T03:26:16;101251.31;;;5.41;86.71
72925;BME280;61070;50.794;7.054;2024-03-06T03:27:16;101252.19;;;5.40;86.56
72925;BME280;61070;50.794;7.054;2024-03-06T03:28:17;101252.25;;;5.38;86.77
72925;BME280;61070;50.794;7.054;2024-03-06T03:29:18;101260.09;;;5.35;86.78
72925;BME280;61070;50.794;7.054;2024-03-06T03:30:18;101257.56;;;5.32;86.86
72925;BME280;61070;50.794;7.054;2024-03-06T03:31:21;101260.25;;;5.28;86.74
72925;BME280;61070;50.794;7.054;2024-03-06T03:32:21;101262.94;;;5.23;87.04
72925;BME280;61070;50.794;7.054;2024-03-06T03:33:22;101262.97;;;5.20;87.23
72925;BME280;61070;50.794;7.054;2024-03-06T03:34:23;101266.50;;;5.17;87.20
72925;BME280;61070;50.794;7.054;2024-03-06T03:35:23;101265.69;;;5.14;87.19
72925;BME280;61070;50.794;7.054;2024-03-06T03:36:25;101259.63;;;5.12;87.19
72925;BME280;61070;50.794;7.054;2024-03-06T03:37:25;101266.59;;;5.10;87.23
72925;BME280;61070;50.794;7.054;2024-03-06T03:38:25;101271.81;;;5.10;87.56
72925;BME280;61070;50.794;7.054;2024-03-06T03:39:26;101271.00;;;5.08;87.57
72925;BME280;61070;50.794;7.054;2024-03-06T03:40:27;101274.50;;;5.05;87.71
72925;BME280;61070;50.794;7.054;2024-03-06T03:41:27;101279.66;;;5.07;88.16
72925;BME280;61070;50.794;7.054;2024-03-06T03:42:27;101278.88;;;5.03;88.22
72925;BME280;61070;50.794;7.054;2024-03-06T03:43:28;101283.22;;;5.01;88.27
72925;BME280;61070;50.794;7.054;2024-03-06T03:44:28;101280.69;;;4.98;88.47
72925;BME280;61070;50.794;7.054;2024-03-06T03:45:28;101278.97;;;4.96;88.40
72925;BME280;61070;50.794;7.054;2024-03-06T03:46:28;101284.22;;;4.94;88.49
72925;BME280;61070;50.794;7.054;2024-03-06T03:47:29;101284.28;;;4.89;88.27
72925;BME280;61070;50.794;7.054;2024-03-06T03:48:29;101289.50;;;4.89;88.33
72925;BME280;61070;50.794;7.054;2024-03-06T03:49:30;101283.44;;;4.89;88.35
72925;BME280;61070;50.794;7.054;2024-03-06T03:50:30;101287.75;;;4.90;88.71
72925;BME280;61070;50.794;7.054;2024-03-06T03:51:31;101291.28;;;4.86;88.29
72925;BME280;61070;50.794;7.054;2024-03-06T03:52:31;101302.59;;;4.83;88.82
72925;BME280;61070;50.794;7.054;2024-03-06T03:53:31;101299.16;;;4.81;88.64
72925;BME280;61070;50.794;7.054;2024-03-06T03:54:32;101294.81;;;4.80;88.74
72925;BME280;61070;50.794;7.054;2024-03-06T03:55:32;101287.94;;;4.78;88.61
72925;BME280;61070;50.794;7.054;2024-03-06T03:56:32;101303.56;;;4.76;88.28
72925;BME280;61070;50.794;7.054;2024-03-06T03:57:33;101300.09;;;4.76;88.45
72925;BME280;61070;50.794;7.054;2024-03-06T03:58:33;101301.84;;;4.75;88.64
72925;BME280;61070;50.794;7.054;2024-03-06T03:59:34;101308.81;;;4.73;88.85
72925;BME280;61070;50.794;7.054;2024-03-06T04:00:34;101308.84;;;4.70;88.79
72925;BME280;61070;50.794;7.054;2024-03-06T04:01:34;101309.78;;;4.68;88.60
72925;BME280;61070;50.794;7.054;2024-03-06T04:02:34;101308.91;;;4.65;88.73
72925;BME280;61070;50.794;7.054;2024-03-06T04:03:35;101315.88;;;4.65;88.71
72925;BME280;61070;50.794;7.054;2024-03-06T04:04:36;101312.41;;;4.64;88.63
72925;BME280;61070;50.794;7.054;2024-03-06T04:05:36;101321.94;;;4.65;89.02
72925;BME280;61070;50.794;7.054;2024-03-06T04:06:37;101316.69;;;4.67;89.09
72925;BME280;61070;50.794;7.054;2024-03-06T04:07:37;101314.09;;;4.67;88.49
72925;BME280;61070;50.794;7.054;2024-03-06T04:08:38;101314.09;;;4.69;88.37
72925;BME280;61070;50.794;7.054;2024-03-06T04:09:38;101307.16;;;4.68;88.47
72925;BME280;61070;50.794;7.054;2024-03-06T04:10:39;101308.88;;;4.67;88.28
72925;BME280;61070;50.794;7.054;2024-03-06T04:11:39;101314.94;;;4.69;88.44
72925;BME280;61070;50.794;7.054;2024-03-06T04:12:39;101312.31;;;4.71;88.33
72925;BME280;61070;50.794;7.054;2024-03-06T04:13:45;101314.94;;;4.69;88.25
72925;BME280;61070;50.794;7.054;2024-03-06T04:14:46;101307.09;;;4.71;88.20
72925;BME280;61070;50.794;7.054;2024-03-06T04:15:46;101310.53;;;4.74;87.57
72925;BME280;61070;50.794;7.054;2024-03-06T04:16:47;101317.50;;;4.74;87.56
72925;BME280;61070;50.794;7.054;2024-03-06T04:17:47;101312.25;;;4.75;87.89
72925;BME280;61070;50.794;7.054;2024-03-06T04:18:47;101321.78;;;4.76;88.19
72925;BME280;61070;50.794;7.054;2024-03-06T04:19:48;101313.97;;;4.78;88.04
72925;BME280;61070;50.794;7.054;2024-03-06T04:20:48;101322.59;;;4.80;88.03
72925;BME280;61070;50.794;7.054;2024-03-06T04:21:48;101315.63;;;4.82;88.10
72925;BME280;61070;50.794;7.054;2024-03-06T04:22:49;101319.13;;;4.82;87.81
72925;BME280;61070;50.794;7.054;2024-03-06T04:23:51;101319.06;;;4.85;87.90
72925;BME280;61070;50.794;7.054;2024-03-06T04:24:51;101319.03;;;4.87;87.89
72925;BME280;61070;50.794;7.054;2024-03-06T04:25:51;101320.72;;;4.89;87.77
72925;BME280;61070;50.794;7.054;2024-03-06T04:26:52;101321.59;;;4.90;87.35
72925;BME280;61070;50.794;7.054;2024-03-06T04:27:52;101314.69;;;4.87;87.42
72925;BME280;61070;50.794;7.054;2024-03-06T04:28:52;101319.81;;;4.92;87.35
72925;BME280;61070;50.794;7.054;2024-03-06T04:29:53;101313.75;;;4.91;87.24
72925;BME280;61070;50.794;7.054;2024-03-06T04:30:53;101312.88;;;4.91;87.14
72925;BME280;61070;50.794;7.054;2024-03-06T04:31:54;101322.41;;;4.93;87.09
72925;BME280;61070;50.794;7.054;2024-03-06T04:32:54;101316.34;;;4.93;87.00
72925;BME280;61070;50.794;7.054;2024-03-06T04:33:55;101319.78;;;4.95;86.89
72925;BME280;61070;50.794;7.054;2024-03-06T04:34:55;101321.50;;;4.98;87.00
72925;BME280;61070;50.794;7.054;2024-03-06T04:35:56;101328.41;;;4.99;87.02
72925;BME280;61070;50.794;7.054;2024-03-06T04:36:56;101325.75;;;5.02;86.99
72925;BME280;61070;50.794;7.054;2024-03-06T04:37:56;101330.09;;;5.03;87.11
72925;BME280;61070;50.794;7.054;2024-03-06T04:38:57;101333.56;;;5.02;86.86
72925;BME280;61070;50.794;7.054;2024-03-06T04:39:57;101337.03;;;5.04;86.55
72925;BME280;61070;50.794;7.054;2024-03-06T04:40:57;101335.31;;;5.01;86.83
72925;BME280;61070;50.794;7.054;2024-03-06T04:41:58;101339.66;;;5.02;86.64
72925;BME280;61070;50.794;7.054;2024-03-06T04:42:58;101338.72;;;5.06;86.76
72925;BME280;61070;50.794;7.054;2024-03-06T04:43:58;101340.50;;;5.01;86.65
72925;BME280;61070;50.794;7.054;2024-03-06T04:45:00;101344.88;;;5.02;86.85
72925;BME280;61070;50.794;7.054;2024-03-06T04:46:01;101337.94;;;5.00;86.92
72925;BME280;61070;50.794;7.054;2024-03-06T04:47:01;101344.88;;;5.02;86.97
72925;BME280;61070;50.794;7.054;2024-03-06T04:48:01;101342.25;;;5.02;86.72
72925;BME280;61070;50.794;7.054;2024-03-06T04:49:02;101339.63;;;5.04;87.53
72925;BME280;61070;50.794;7.054;2024-03-06T04:50:03;101342.19;;;5.05;87.37
72925;BME280;61070;50.794;7.054;2024-03-06T04:51:03;101340.47;;;5.04;87.44
72925;BME280;61070;50.794;7.054;2024-03-06T04:52:04;101343.94;;;5.05;87.27
72925;BME280;61070;50.794;7.054;2024-03-06T04:53:04;101344.81;;;5.05;87.22
72925;BME280;61070;50.794;7.054;2024-03-06T04:54:05;101343.97;;;5.02;87.25
72925;BME280;61070;50.794;7.054;2024-03-06T04:55:06;101350.91;;;5.04;87.46
72925;BME280;61070;50.794;7.054;2024-03-06T04:56:07;101348.25;;;5.06;87.15
72925;BME280;61070;50.794;7.054;2024-03-06T04:57:07;101350.94;;;5.03;86.91
72925;BME280;61070;50.794;7.054;2024-03-06T04:58:07;101352.75;;;4.96;86.87
72925;BME280;61070;50.794;7.054;2024-03-06T04:59:08;101349.34;;;4.91;87.22
72925;BME280;61070;50.794;7.054;2024-03-06T05:00:10;101356.31;;;4.89;87.19
72925;BME280;61070;50.794;7.054;2024-03-06T05:01:11;101354.63;;;4.86;87.21
72925;BME280;61070;50.794;7.054;2024-03-06T05:02:12;101358.97;;;4.87;87.36
72925;BME280;61070;50.794;7.054;2024-03-06T05:03:12;101363.28;;;4.87;87.40
72925;BME280;61070;50.794;7.054;2024-03-06T05:04:13;101365.88;;;4.87;87.42
72925;BME280;61070;50.794;7.054;2024-03-06T05:05:13;101360.69;;;4.87;87.45
72925;BME280;61070;50.794;7.054;2024-03-06T05:06:13;101364.16;;;4.86;87.47
72925;BME280;61070;50.794;7.054;2024-03-06T05:07:13;101364.25;;;4.80;87.11
72925;BME280;61070;50.794;7.054;2024-03-06T05:08:14;101365.13;;;4.80;87.36
72925;BME280;61070;50.794;7.054;2024-03-06T05:09:14;101369.47;;;4.80;87.21
72925;BME280;61070;50.794;7.054;2024-03-06T05:10:15;101366.88;;;4.78;87.16
72925;BME280;61070;50.794;7.054;2024-03-06T05:11:16;101372.16;;;4.74;86.90
72925;BME280;61070;50.794;7.054;2024-03-06T05:12:16;101365.22;;;4.73;86.99
72925;BME280;61070;50.794;7.054;2024-03-06T05:13:16;101373.91;;;4.72;87.06
72925;BME280;61070;50.794;7.054;2024-03-06T05:14:17;101367.84;;;4.73;87.30
72925;BME280;61070;50.794;7.054;2024-03-06T05:15:17;101372.16;;;4.72;87.19
72925;BME280;61070;50.794;7.054;2024-03-06T05:16:19;101367.03;;;4.68;87.35
72925;BME280;61070;50.794;7.054;2024-03-06T05:17:22;101361.88;;;4.63;87.10
72925;BME280;61070;50.794;7.054;2024-03-06T05:18:23;101369.66;;;4.64;87.21
72925;BME280;61070;50.794;7.054;2024-03-06T05:19:23;101371.41;;;4.64;87.24
72925;BME280;61070;50.794;7.054;2024-03-06T05:20:30;101373.16;;;4.62;87.40
72925;BME280;61070;50.794;7.054;2024-03-06T05:21:33;101373.22;;;4.59;87.13